Portland International Airport
KPDX : rendu visible

Aérodrome :











RETROUVEZ-NOUS SUR...

 
LOGIN :

S'inscrire | Disclaimer

   EN    FR    IT 

 









Légende :    VFR   VFR Marginal   IFR   IFR Intensif   IFR Très Intensif
Visi : 
Plafond : 
>= 8 km
>= 3000ft
5 à 8 km
1000 à 3000 ft
1500m à 5 km
500 à 1000 ft
800 à 1500m
200 à 500 ft
< 800m
< 200 ft
Symboles :   Orages  Brouillard  Fortes neiges  Fortes précipitations  Vent > 20 kt






- Altitude de l'aérodrome : 31 ft
- Code IATA : PDX


KPDX - Portland International

DERNIER METAR :
  • 100653Z 15008KT 10SM FEW010 SCT250 05/02 A3021 RMK AO2 SLP230 T00500022

METARs EXPIRÉS :
  • 100553Z 00000KT 10SM FEW010 FEW250 04/02 A3021 RMK AO2 SLP229 T00390022 10078 20033 51005
  • 100453Z 14004KT 10SM FEW012 FEW250 04/02 A3021 RMK AO2 SLP230 T00440022

TAF KPDX
Valide du 10 à 06h jusqu'au 11 à 06h UTC


100521Z 1006/1106 VRB03KT P6SM FEW013
FM101800 12007KT 6SM -RA OVC050
FM102000 12006KT 4SM -RA BR OVC050
FM102100 12007KT 6SM -RA OVC025
FM110300 13005KT 6SM -RA OVC015



MET'MAP, la Météo Aéronautique d'un coup d'oeil ! - Copyright ORBIFLY Décembre 2007 - Disclaimer

ORBIFLY MET'MAP TEAM :

Programmation & Développement : Alexandra Zaïnal
Sur une idée originale de : Baudouin d'Aumeries
Assistance à la programmation : Marc-Olivier Méhu
Soutien technique & logistique : Manuel Goepfert

Contact : metmap@orbifly.com




SOURCES & CREDITS :

   NOAA       Earth
Advisory